Time;durP1;ratioP1;P1;durP2;ratioP2;P2;SDS_P1;SDS_P2;PMS_P1;PMS_P2;Temp;Humidity;BMP_temperature;BMP_pressure;BME280_temperature;BME280_humidity;BME280_pressure;Samples;Min_cycle;Max_cycle;Signal;HPM_P1;HPM_P2
2022/06/10 00:00:45;;;;;;;20.80;18.50;;;;;;;18.81;100.00;99596.06;5029272;28;20025;-71
2022/06/10 00:03:12;;;;;;;22.10;19.63;;;;;;;18.81;100.00;99575.13;5029189;28;20494;-71
2022/06/10 00:05:40;;;;;;;21.13;19.02;;;;;;;18.83;100.00;99587.31;5029239;28;20527;-69
2022/06/10 00:08:10;;;;;;;20.00;17.90;;;;;;;18.86;100.00;99575.94;5029047;28;20472;-71
2022/06/10 00:10:36;;;;;;;20.25;18.20;;;;;;;18.79;100.00;99569.03;5029416;28;20032;-71
2022/06/10 00:13:02;;;;;;;21.88;18.85;;;;;;;18.83;100.00;99571.59;5028852;28;20124;-71
2022/06/10 00:15:28;;;;;;;21.27;19.08;;;;;;;18.75;100.00;99569.09;5028977;28;20029;-71
2022/06/10 00:17:54;;;;;;;24.63;18.23;;;;;;;18.66;100.00;99569.16;5029070;28;20080;-69
2022/06/10 00:20:24;;;;;;;19.63;17.52;;;;;;;18.59;100.00;99578.84;5028891;28;20029;-72
2022/06/10 00:22:49;;;;;;;19.45;17.52;;;;;;;18.57;100.00;99559.69;5029501;28;20079;-69
2022/06/10 00:25:17;;;;;;;20.55;17.75;;;;;;;18.61;100.00;99570.97;5025663;28;20029;-71
2022/06/10 00:27:43;;;;;;;22.48;17.88;;;;;;;18.47;100.00;99568.50;5012675;28;20080;-71
2022/06/10 00:30:10;;;;;;;20.50;18.25;;;;;;;18.45;100.00;99577.25;5012693;28;20053;-69
2022/06/10 00:32:36;;;;;;;19.67;17.67;;;;;;;18.32;100.00;99576.47;5044229;28;20037;-71
2022/06/10 00:35:01;;;;;;;19.55;17.55;;;;;;;18.24;100.00;99573.94;5018875;28;20026;-71
2022/06/10 00:37:27;;;;;;;19.60;17.63;;;;;;;18.38;100.00;99586.88;5013784;28;20048;-69
2022/06/10 00:39:52;;;;;;;19.30;17.17;;;;;;;18.40;100.00;99579.91;5013468;28;20104;-73
2022/06/10 00:42:18;;;;;;;21.10;18.33;;;;;;;18.16;100.00;99553.13;5013491;28;20022;-72
2022/06/10 00:44:52;;;;;;;19.17;17.25;;;;;;;18.11;100.00;99573.19;5013821;28;20045;-72
2022/06/10 00:47:19;;;;;;;23.73;18.45;;;;;;;18.09;100.00;99575.81;5013291;28;20038;-72
2022/06/10 00:50:13;;;;;;;19.83;17.83;;;;;;;18.10;100.00;99569.69;5013528;28;20492;-71
2022/06/10 00:52:42;;;;;;;19.25;17.08;;;;;;;18.17;100.00;99577.47;5013572;28;20061;-71
2022/06/10 00:55:08;;;;;;;22.33;18.65;;;;;;;18.03;100.00;99572.38;5013314;28;20018;-71
2022/06/10 00:57:42;;;;;;;21.23;19.10;;;;;;;17.88;100.00;99547.22;5013317;28;20473;-71
2022/06/10 01:00:15;;;;;;;20.40;17.95;;;;;;;18.06;100.00;99588.03;5013322;28;20396;-72
2022/06/10 01:02:42;;;;;;;20.63;18.30;;;;;;;18.02;100.00;99583.69;5013000;28;20096;-71
2022/06/10 01:05:15;;;;;;;19.83;17.67;;;;;;;18.10;100.00;99579.28;5013164;28;20108;-71
2022/06/10 01:07:45;;;;;;;19.90;17.58;;;;;;;18.20;100.00;99575.72;5013276;28;20033;-71
2022/06/10 01:10:14;;;;;;;20.15;17.98;;;;;;;18.10;100.00;99571.44;5013216;28;20033;-71
2022/06/10 01:13:01;;;;;;;19.93;17.60;;;;;;;17.88;100.00;99552.44;5011862;28;20528;-71
2022/06/10 01:15:33;;;;;;;20.90;17.90;;;;;;;18.06;100.00;99583.66;5013298;28;20265;-71
2022/06/10 01:18:27;;;;;;;19.70;17.70;;;;;;;17.86;100.00;99585.53;5012730;28;20038;-71
2022/06/10 01:21:18;;;;;;;19.30;17.23;;;;;;;18.05;100.00;99586.28;5012805;28;20037;-71
2022/06/10 01:24:21;;;;;;;19.70;17.25;;;;;;;17.81;100.00;99590.78;5012792;28;20079;-71
2022/06/10 01:29:55;;;;;;;21.77;17.27;;;;;;;17.89;100.00;99599.41;5013180;28;20084;-71
2022/06/10 01:32:28;;;;;;;20.85;17.33;;;;;;;17.86;100.00;99601.22;5012529;28;20022;-72
2022/06/10 01:35:08;;;;;;;21.63;17.80;;;;;;;18.00;100.00;99594.16;5012927;28;20419;-71
2022/06/10 01:37:43;;;;;;;20.50;18.30;;;;;;;18.00;100.00;99556.75;5012660;28;20022;-71
2022/06/10 01:40:14;;;;;;;19.55;17.05;;;;;;;18.26;100.00;99588.72;5012478;28;20033;-71
2022/06/10 01:42:47;;;;;;;26.90;18.88;;;;;;;18.38;100.00;99595.59;5012755;28;20037;-71
2022/06/10 01:45:21;;;;;;;20.27;17.33;;;;;;;18.34;100.00;99606.06;5012521;28;20208;-71
2022/06/10 01:47:58;;;;;;;21.15;16.88;;;;;;;18.39;100.00;99594.72;5012389;28;20463;-71
2022/06/10 01:50:29;;;;;;;20.10;17.35;;;;;;;18.11;100.00;99605.38;5012645;28;20052;-71
2022/06/10 01:53:00;;;;;;;23.75;17.15;;;;;;;17.83;100.00;99612.53;5012583;28;20030;-71
2022/06/10 01:55:32;;;;;;;21.38;16.50;;;;;;;18.03;100.00;99603.72;5012507;28;20033;-72
2022/06/10 01:58:14;;;;;;;19.42;17.27;;;;;;;18.15;100.00;99601.00;5011222;28;20033;-71
2022/06/10 02:00:44;;;;;;;17.88;16.10;;;;;;;18.24;100.00;99603.56;5012201;28;20448;-71
2022/06/10 02:03:30;;;;;;;19.42;16.95;;;;;;;18.23;100.00;99604.44;5012367;28;20029;-71
2022/06/10 02:06:05;;;;;;;21.00;17.50;;;;;;;18.25;100.00;99588.75;5011924;28;20499;-71
2022/06/10 02:08:35;;;;;;;22.30;18.35;;;;;;;18.39;100.00;99601.66;5012325;28;20032;-71
2022/06/10 02:11:14;;;;;;;23.17;17.15;;;;;;;18.35;100.00;99607.81;5012046;28;20022;-72
2022/06/10 02:13:47;;;;;;;23.60;17.97;;;;;;;18.25;100.00;99594.81;5011913;28;20787;-70
2022/06/10 02:16:17;;;;;;;20.75;16.77;;;;;;;18.20;100.00;99583.53;5011872;28;20033;-71
2022/06/10 02:19:06;;;;;;;22.90;17.20;;;;;;;18.14;100.00;99594.03;5012089;28;20056;-71
2022/06/10 02:21:42;;;;;;;20.08;16.25;;;;;;;18.30;100.00;99604.38;5011901;28;20496;-71
2022/06/10 02:24:17;;;;;;;22.92;17.08;;;;;;;18.43;100.00;99617.31;5011582;28;20102;-71
2022/06/10 02:26:44;;;;;;;20.42;17.35;;;;;;;18.22;100.00;99566.13;5011607;28;20461;-71
2022/06/10 02:29:22;;;;;;;24.77;17.45;;;;;;;18.07;100.00;99543.63;5010453;28;20061;-71
2022/06/10 02:31:55;;;;;;;25.42;18.20;;;;;;;18.18;100.00;99587.06;5011593;28;20109;-72
2022/06/10 02:34:21;;;;;;;25.38;18.13;;;;;;;18.34;100.00;99612.16;5011863;28;20120;-71
2022/06/10 02:37:05;;;;;;;22.70;17.60;;;;;;;18.34;100.00;99608.69;5011747;28;20064;-71
2022/06/10 02:39:57;;;;;;;22.10;17.00;;;;;;;18.27;100.00;99618.34;5011664;28;20033;-71
2022/06/10 02:42:51;;;;;;;22.90;17.95;;;;;;;18.25;100.00;99607.03;5011915;28;20034;-71
2022/06/10 02:45:31;;;;;;;22.45;18.05;;;;;;;18.26;100.00;99606.16;5010697;28;20100;-71
2022/06/10 02:48:21;;;;;;;21.95;17.63;;;;;;;18.31;100.00;99608.75;5011581;28;20049;-71
2022/06/10 02:50:47;;;;;;;27.77;17.50;;;;;;;18.09;100.00;99583.66;5011569;28;20452;-71
2022/06/10 02:53:13;;;;;;;22.10;18.40;;;;;;;18.26;100.00;99609.63;5011340;28;20025;-71
2022/06/10 02:55:39;;;;;;;22.30;16.85;;;;;;;18.33;100.00;99614.78;5010847;28;20038;-71
2022/06/10 03:01:12;;;;;;;26.05;17.50;;;;;;;18.54;100.00;99625.06;5011144;28;20033;-71
2022/06/10 03:03:45;;;;;;;19.15;15.75;;;;;;;18.68;100.00;99621.44;5011178;28;20033;-71
2022/06/10 03:06:21;;;;;;;23.15;17.40;;;;;;;18.75;100.00;99634.47;5010791;28;20029;-71
2022/06/10 03:09:09;;;;;;;25.38;18.40;;;;;;;18.64;100.00;99622.34;5011195;28;20029;-71
2022/06/10 03:12:09;;;;;;;25.80;17.30;;;;;;;18.70;100.00;99643.22;5011174;28;20041;-71
2022/06/10 03:14:35;;;;;;;23.73;17.60;;;;;;;18.08;100.00;99560.13;4969058;28;20266;-71
2022/06/10 03:17:21;;;;;;;23.40;17.10;;;;;;;18.48;100.00;99635.59;4969411;28;20097;-70
2022/06/10 03:20:08;;;;;;;24.60;17.35;;;;;;;18.40;100.00;99646.06;4969393;28;20066;-71
2022/06/10 03:22:55;;;;;;;25.92;17.42;;;;;;;18.20;100.00;99640.16;4969498;28;20046;-71
2022/06/10 03:25:36;;;;;;;25.77;17.88;;;;;;;18.26;100.00;99659.25;4969376;28;20039;-70
2022/06/10 03:28:23;;;;;;;27.95;17.52;;;;;;;18.21;100.00;99674.09;4969196;28;20074;-70
2022/06/10 03:30:57;;;;;;;21.73;17.55;;;;;;;17.76;100.00;99639.56;4968544;28;20489;-70
2022/06/10 03:33:42;;;;;;;27.55;18.95;;;;;;;17.78;100.00;99669.13;4968261;28;20465;-71
2022/06/10 03:36:11;;;;;;;25.63;18.20;;;;;;;17.77;100.00;99643.91;4968602;28;20031;-71
2022/06/10 03:38:43;;;;;;;24.05;18.50;;;;;;;18.02;100.00;99680.31;4968423;28;20042;-71
2022/06/10 03:41:21;;;;;;;23.77;18.00;;;;;;;17.95;100.00;99680.38;4968316;28;20477;-69
2022/06/10 03:43:50;;;;;;;24.33;18.17;;;;;;;18.05;100.00;99696.84;4968137;28;20065;-70
2022/06/10 03:46:21;;;;;;;29.15;18.10;;;;;;;18.07;100.00;99687.25;4958595;28;20097;-70
2022/06/10 03:48:48;;;;;;;25.90;18.23;;;;;;;18.02;100.00;99655.09;4949575;28;20471;-71
2022/06/10 03:51:16;;;;;;;33.65;18.73;;;;;;;17.99;100.00;99662.06;4985404;28;20136;-72
2022/06/10 03:53:42;;;;;;;26.42;19.48;;;;;;;18.03;100.00;99679.44;5008868;28;20109;-70
2022/06/10 03:56:09;;;;;;;24.85;19.95;;;;;;;17.78;100.00;99659.56;5008773;28;20029;-72
2022/06/10 03:58:34;;;;;;;26.63;18.67;;;;;;;17.59;100.00;99681.41;5011033;28;20034;-72
2022/06/10 04:01:00;;;;;;;26.88;19.88;;;;;;;17.64;100.00;99674.41;5013185;28;20037;-73
2022/06/10 04:03:26;;;;;;;24.58;19.90;;;;;;;17.75;100.00;99676.97;5013194;28;20030;-73
2022/06/10 04:05:51;;;;;;;28.85;20.35;;;;;;;17.94;100.00;99678.66;5012987;28;20041;-72
2022/06/10 04:08:17;;;;;;;27.35;19.80;;;;;;;18.09;100.00;99689.88;5013205;28;20030;-72
2022/06/10 04:10:43;;;;;;;24.80;19.77;;;;;;;17.92;100.00;99658.63;5012715;28;20073;-73
2022/06/10 04:13:10;;;;;;;28.67;22.35;;;;;;;18.08;100.00;99688.13;5022568;28;20026;-72
2022/06/10 04:15:35;;;;;;;26.83;19.52;;;;;;;18.12;100.00;99674.19;5013180;28;20113;-72
2022/06/10 04:18:01;;;;;;;28.60;20.58;;;;;;;18.30;100.00;99677.53;5015803;28;20614;-72
2022/06/10 04:20:34;;;;;;;27.50;20.65;;;;;;;18.30;100.00;99672.31;5032448;28;20057;-72
2022/06/10 04:23:00;;;;;;;25.35;19.65;;;;;;;18.36;100.00;99682.72;5031301;28;20048;-73
2022/06/10 04:25:26;;;;;;;23.85;19.50;;;;;;;18.44;100.00;99688.75;5032448;28;20480;-75
2022/06/10 04:27:52;;;;;;;27.63;19.30;;;;;;;18.36;100.00;99688.81;5032712;28;20040;-72
2022/06/10 04:30:30;;;;;;;24.95;19.48;;;;;;;18.39;100.00;99693.13;4992107;28;1199975;-71
2022/06/10 04:32:56;;;;;;;32.38;20.17;;;;;;;18.49;100.00;99693.94;5033985;28;20043;-72
2022/06/10 04:35:23;;;;;;;27.08;19.33;;;;;;;18.35;100.00;99667.91;5033962;28;20029;-71
2022/06/10 04:37:50;;;;;;;29.20;19.90;;;;;;;18.24;100.00;99624.47;5033693;28;20380;-71
2022/06/10 04:40:19;;;;;;;27.90;19.20;;;;;;;18.65;100.00;99676.38;5033769;28;20033;-73
2022/06/10 04:42:46;;;;;;;25.92;18.35;;;;;;;18.66;100.00;99676.38;5033845;28;20037;-72
2022/06/10 04:45:12;;;;;;;22.38;17.85;;;;;;;18.70;100.00;99680.66;5033678;28;20049;-71
2022/06/10 04:47:38;;;;;;;25.33;18.00;;;;;;;18.74;100.00;99669.31;5033777;28;20025;-71
2022/06/10 04:50:05;;;;;;;27.50;19.63;;;;;;;18.73;100.00;99669.34;5033580;28;20415;-71
2022/06/10 04:52:31;;;;;;;23.25;19.45;;;;;;;18.76;100.00;99666.69;5033498;28;20037;-71
2022/06/10 04:54:57;;;;;;;23.10;18.42;;;;;;;18.86;100.00;99676.16;5033729;28;20033;-72
2022/06/10 04:57:22;;;;;;;24.10;18.88;;;;;;;18.87;100.00;99682.28;5033861;28;20475;-71
2022/06/10 04:59:48;;;;;;;22.65;19.98;;;;;;;18.81;100.00;99675.34;5032206;28;20099;-69
2022/06/10 05:02:14;;;;;;;23.30;18.25;;;;;;;18.90;100.00;99672.69;5033401;28;20029;-76
2022/06/10 05:04:40;;;;;;;29.55;19.38;;;;;;;18.90;100.00;99670.09;5033323;28;20036;-69
2022/06/10 05:07:05;;;;;;;24.17;18.48;;;;;;;18.89;100.00;99668.31;5033079;28;20022;-71
2022/06/10 05:09:31;;;;;;;23.75;18.50;;;;;;;18.94;100.00;99664.81;5031875;28;20025;-72
2022/06/10 05:11:56;;;;;;;29.92;19.13;;;;;;;18.90;100.00;99650.84;5032097;28;20069;-72
2022/06/10 05:14:22;;;;;;;27.02;18.23;;;;;;;19.07;100.00;99693.44;5033219;28;20037;-71
2022/06/10 05:16:47;;;;;;;23.02;18.48;;;;;;;19.04;100.00;99682.13;5032807;28;20087;-70
2022/06/10 05:19:13;;;;;;;23.10;18.05;;;;;;;19.15;100.00;99688.13;5033204;28;20057;-71
2022/06/10 05:21:38;;;;;;;23.88;19.63;;;;;;;19.24;100.00;99690.63;5032850;28;20454;-71
2022/06/10 05:24:04;;;;;;;25.33;19.42;;;;;;;19.23;100.00;99696.75;5033003;28;20029;-71
2022/06/10 05:26:32;;;;;;;24.30;20.00;;;;;;;19.34;100.00;99708.84;5033316;28;20055;-70
2022/06/10 05:28:58;;;;;;;24.98;20.48;;;;;;;19.39;100.00;99709.69;5032954;28;20057;-71
2022/06/10 05:31:24;;;;;;;32.08;21.77;;;;;;;19.44;100.00;99726.19;5032970;28;20123;-71
2022/06/10 05:36:33;;;;;;;23.85;21.35;;;;;;;19.59;100.00;99735.63;5032787;28;20041;-71
2022/06/10 05:38:59;;;;;;;23.67;19.73;;;;;;;19.69;100.00;99734.63;5032966;28;20021;-76
2022/06/10 05:44:09;;;;;;;25.98;20.70;;;;;;;20.10;100.00;99741.97;5032908;28;20028;-73
2022/06/10 05:46:35;;;;;;;27.02;21.25;;;;;;;20.19;100.00;99745.34;5032419;28;20068;-73
2022/06/10 05:49:01;;;;;;;30.85;22.20;;;;;;;20.17;100.00;99754.97;5032588;28;20061;-72
2022/06/10 05:51:27;;;;;;;26.23;23.20;;;;;;;19.71;100.00;99711.91;5032625;28;20033;-72
2022/06/10 05:53:52;;;;;;;27.23;23.15;;;;;;;19.68;100.00;99711.06;5032615;28;20021;-72
2022/06/10 05:56:18;;;;;;;26.38;21.95;;;;;;;19.54;100.00;99713.88;5032519;28;20491;-74
2022/06/10 05:58:43;;;;;;;26.98;24.08;;;;;;;19.71;100.00;99732.84;5032321;28;20108;-72
2022/06/10 06:01:09;;;;;;;27.42;24.40;;;;;;;19.80;100.00;99738.84;5032189;28;20030;-72
2022/06/10 06:03:34;;;;;;;27.48;24.05;;;;;;;19.99;100.00;99737.75;5031378;28;20108;-72
2022/06/10 06:06:00;;;;;;;26.98;22.00;;;;;;;20.16;100.00;99744.50;5032387;28;20450;-72
2022/06/10 06:08:26;;;;;;;27.33;21.05;;;;;;;20.23;100.00;99743.53;5031029;28;20032;-72
2022/06/10 06:10:51;;;;;;;25.98;21.98;;;;;;;20.31;100.00;99741.69;5031993;28;20033;-72
2022/06/10 06:13:17;;;;;;;27.38;23.95;;;;;;;20.40;100.00;99751.16;5032083;28;20025;-72
2022/06/10 06:15:42;;;;;;;26.05;22.95;;;;;;;20.40;100.00;99753.78;5031885;28;20175;-72
2022/06/10 06:18:09;;;;;;;24.55;21.83;;;;;;;20.46;100.00;99745.81;5032200;28;20110;-73
2022/06/10 06:20:34;;;;;;;28.65;25.55;;;;;;;20.52;100.00;99743.13;5031010;28;20029;-70
2022/06/10 06:23:00;;;;;;;26.25;23.35;;;;;;;20.57;100.00;99736.91;5029826;28;20044;-74
2022/06/10 06:25:25;;;;;;;26.52;21.75;;;;;;;20.54;100.00;99748.31;5031751;28;20025;-72
2022/06/10 06:27:52;;;;;;;25.63;20.80;;;;;;;20.39;100.00;99719.72;5031773;28;20116;-71
2022/06/10 06:30:31;;;;;;;27.23;22.27;;;;;;;20.41;100.00;99755.53;5031959;28;20045;-72
2022/06/10 06:33:02;;;;;;;28.20;23.87;;;;;;;20.37;100.00;99753.81;5046262;28;20072;-71
2022/06/10 06:35:28;;;;;;;27.67;23.83;;;;;;;20.47;100.00;99755.44;5031795;28;20022;-72
2022/06/10 06:37:54;;;;;;;27.88;24.75;;;;;;;20.43;100.00;99752.88;5031755;28;20032;-72
2022/06/10 06:40:19;;;;;;;28.35;24.73;;;;;;;20.23;100.00;99761.88;5031432;28;20029;-70
2022/06/10 06:42:46;;;;;;;26.65;23.73;;;;;;;20.26;100.00;99747.88;5031363;28;20033;-71
2022/06/10 06:45:12;;;;;;;29.20;24.55;;;;;;;20.42;100.00;99761.63;5030385;28;20039;-71
2022/06/10 06:47:38;;;;;;;26.27;23.15;;;;;;;20.55;100.00;99759.66;5031562;28;20429;-72
2022/06/10 06:50:04;;;;;;;28.92;25.77;;;;;;;20.45;100.00;99754.59;5031694;28;20029;-71
2022/06/10 06:52:30;;;;;;;30.05;25.63;;;;;;;20.47;100.00;99760.69;5031385;28;20466;-71
2022/06/10 06:54:56;;;;;;;36.20;26.90;;;;;;;20.19;100.00;99737.47;5031276;28;20067;-71
2022/06/10 06:57:25;;;;;;;30.08;26.73;;;;;;;20.21;100.00;99747.94;5031541;28;20483;-72
2022/06/10 06:59:53;;;;;;;31.70;27.05;;;;;;;20.26;100.00;99743.50;5031334;28;20056;-72
2022/06/10 07:02:19;;;;;;;32.25;27.38;;;;;;;20.43;100.00;99745.88;5031158;28;20521;-72
2022/06/10 07:04:44;;;;;;;34.40;28.52;;;;;;;20.50;100.00;99744.03;5031337;28;20029;-72
2022/06/10 07:07:10;;;;;;;35.45;29.15;;;;;;;20.68;100.00;99738.47;5031203;28;20032;-73
2022/06/10 07:09:35;;;;;;;29.00;25.98;;;;;;;20.85;100.00;99750.50;5031245;28;20032;-74
2022/06/10 07:12:01;;;;;;;36.85;28.02;;;;;;;20.81;100.00;99752.28;5030937;28;20040;-71
2022/06/10 07:14:26;;;;;;;31.15;27.85;;;;;;;21.07;100.00;99761.47;5030950;28;20100;-69
2022/06/10 07:16:52;;;;;;;30.48;26.60;;;;;;;21.05;100.00;99754.50;5031242;28;20033;-72
2022/06/10 07:19:19;;;;;;;32.58;26.95;;;;;;;21.00;100.00;99751.97;5030896;28;20099;-71
2022/06/10 07:21:45;;;;;;;31.05;25.67;;;;;;;21.18;100.00;99753.41;5031018;28;20037;-71
2022/06/10 07:24:11;;;;;;;29.65;25.65;;;;;;;21.36;100.00;99754.81;5031000;28;20047;-71
2022/06/10 07:26:37;;;;;;;27.67;24.48;;;;;;;21.53;100.00;99753.63;5030908;28;20033;-69
2022/06/10 07:29:03;;;;;;;28.58;24.73;;;;;;;21.51;100.00;99722.16;5030754;28;20056;-69
2022/06/10 07:31:28;;;;;;;27.40;23.52;;;;;;;21.89;100.00;99759.91;5030822;28;20492;-71
2022/06/10 07:33:54;;;;;;;28.10;25.23;;;;;;;22.06;100.00;99756.09;5030781;28;20108;-72
2022/06/10 07:36:19;;;;;;;27.83;22.63;;;;;;;22.13;100.00;99748.03;5030770;28;20407;-71
2022/06/10 07:38:45;;;;;;;25.85;22.60;;;;;;;22.01;100.00;99706.22;5030623;28;20087;-72
2022/06/10 07:43:55;;;;;;;24.85;22.17;;;;;;;22.50;99.99;99735.81;5030684;28;20117;-72
2022/06/10 07:46:22;;;;;;;24.52;20.80;;;;;;;22.62;97.96;99739.91;5030745;28;20130;-71
2022/06/10 07:48:48;;;;;;;21.63;19.42;;;;;;;22.77;97.60;99743.94;5030930;28;20114;-72
2022/06/10 07:51:14;;;;;;;27.23;20.80;;;;;;;22.91;100.00;99735.69;5030739;28;20121;-72
2022/06/10 07:53:41;;;;;;;24.00;21.58;;;;;;;23.01;99.82;99738.94;5030444;28;20442;-72
2022/06/10 07:56:08;;;;;;;23.80;21.25;;;;;;;22.99;98.85;99733.72;5030706;28;20091;-72
2022/06/10 07:58:34;;;;;;;24.83;21.35;;;;;;;23.00;98.18;99729.31;5030639;28;20034;-72
2022/06/10 08:01:00;;;;;;;22.15;19.90;;;;;;;22.84;96.94;99723.56;5030520;28;20045;-72
2022/06/10 08:03:27;;;;;;;23.55;20.65;;;;;;;22.90;96.74;99716.41;5030742;28;20076;-72
2022/06/10 08:05:52;;;;;;;23.80;20.15;;;;;;;23.04;95.91;99742.38;5030535;28;20030;-72
2022/06/10 08:08:20;;;;;;;26.20;20.98;;;;;;;23.01;96.73;99726.63;5030580;28;20041;-73
2022/06/10 08:10:46;;;;;;;18.25;16.42;;;;;;;23.11;95.28;99761.47;5030971;28;20099;-73
2022/06/10 08:13:12;;;;;;;19.92;17.20;;;;;;;23.08;95.21;99772.97;5030447;28;20029;-73
2022/06/10 08:15:39;;;;;;;17.95;15.20;;;;;;;22.86;94.94;99756.84;5030528;28;20468;-73
2022/06/10 08:18:06;;;;;;;16.83;15.10;;;;;;;22.74;96.49;99760.66;5030494;28;20033;-73
2022/06/10 08:23:24;;;;;;;17.33;15.18;;;;;;;22.67;97.34;99777.50;5030546;28;20040;-72
2022/06/10 08:25:50;;;;;;;21.02;16.35;;;;;;;22.64;97.97;99787.22;5030355;28;20034;-73
2022/06/10 08:28:16;;;;;;;19.13;16.25;;;;;;;22.67;98.04;99795.03;5030115;28;20033;-72
2022/06/10 08:30:41;;;;;;;19.23;17.30;;;;;;;22.49;97.67;99760.38;5030303;28;20459;-72
2022/06/10 08:33:07;;;;;;;20.27;17.95;;;;;;;22.50;97.59;99782.31;5030205;28;20492;-72
2022/06/10 08:35:35;;;;;;;19.90;17.88;;;;;;;22.43;97.62;99771.03;5030277;28;20028;-68
2022/06/10 08:38:02;;;;;;;20.05;17.25;;;;;;;22.70;97.90;99790.56;5030488;28;20490;-71
2022/06/10 08:40:52;;;;;;;19.45;17.42;;;;;;;22.86;96.08;99795.47;5030406;28;20038;-71
2022/06/10 08:43:37;;;;;;;20.40;16.75;;;;;;;22.61;95.74;99727.66;5028922;28;20038;-70
2022/06/10 08:46:34;;;;;;;21.75;17.83;;;;;;;23.20;95.48;99805.19;5034135;28;20037;-72
2022/06/10 08:49:14;;;;;;;20.58;18.38;;;;;;;23.34;95.22;99800.44;5031263;28;20037;-71
2022/06/10 08:52:04;;;;;;;19.02;17.02;;;;;;;23.42;93.72;99790.53;5031099;28;20037;-72
2022/06/10 08:54:41;;;;;;;21.02;18.02;;;;;;;23.56;93.36;99813.00;5031181;28;20044;-73
2022/06/10 08:57:36;;;;;;;20.73;18.10;;;;;;;23.60;93.07;99814.63;5031144;28;20057;-73
2022/06/10 09:00:23;;;;;;;22.77;19.88;;;;;;;23.50;93.65;99800.00;5003817;28;20037;-73
2022/06/10 09:02:59;;;;;;;20.35;17.98;;;;;;;23.66;93.63;99816.25;5031146;28;20037;-73
2022/06/10 09:05:32;;;;;;;23.75;18.90;;;;;;;23.71;94.25;99812.59;5030876;28;20045;-73
2022/06/10 09:08:15;;;;;;;24.30;21.48;;;;;;;23.69;93.85;99803.84;5030932;28;20159;-73
2022/06/10 09:10:49;;;;;;;20.00;18.02;;;;;;;23.69;93.95;99793.31;4997680;28;20046;-73
2022/06/10 09:13:40;;;;;;;17.02;15.23;;;;;;;23.58;93.16;99795.41;5030825;28;20462;-73
2022/06/10 09:16:14;;;;;;;21.23;18.98;;;;;;;23.53;94.19;99792.03;5014442;28;20033;-73
2022/06/10 09:18:56;;;;;;;19.75;17.65;;;;;;;23.54;93.97;99784.06;5030616;28;20049;-73
2022/06/10 09:21:30;;;;;;;20.15;18.15;;;;;;;23.49;94.17;99785.97;5030566;28;20041;-73
2022/06/10 09:23:58;;;;;;;19.52;17.45;;;;;;;23.43;94.44;99757.16;5031015;28;20033;-73
2022/06/10 09:27:03;;;;;;;19.33;16.55;;;;;;;23.93;93.90;99779.53;5032901;28;20031;-73
2022/06/10 09:29:28;;;;;;;19.88;14.77;;;;;;;24.13;91.23;99755.19;5030077;28;20107;-73
2022/06/10 09:32:13;;;;;;;17.80;15.63;;;;;;;23.97;92.06;99789.91;5030365;28;20033;-73
2022/06/10 09:35:07;;;;;;;20.95;17.45;;;;;;;23.92;92.95;99794.47;5030456;28;20033;-73
2022/06/10 09:37:51;;;;;;;18.05;15.93;;;;;;;23.98;92.45;99789.00;5030413;28;20021;-73
2022/06/10 09:40:39;;;;;;;22.50;16.40;;;;;;;23.79;93.96;99785.13;5030203;28;20053;-73
2022/06/10 09:43:42;;;;;;;18.98;15.80;;;;;;;23.81;94.22;99781.53;5030301;28;20483;-73
2022/06/10 09:46:27;;;;;;;21.55;16.27;;;;;;;23.68;93.54;99794.22;5029981;28;20033;-73
2022/06/10 09:49:13;;;;;;;22.98;17.33;;;;;;;23.78;94.37;99780.81;5030217;28;20029;-72
2022/06/10 09:51:53;;;;;;;17.98;15.95;;;;;;;23.73;94.47;99773.03;5030163;28;20038;-73
2022/06/10 09:54:21;;;;;;;16.48;14.82;;;;;;;23.97;93.04;99786.41;5030410;28;20087;-73
2022/06/10 09:57:09;;;;;;;23.85;17.38;;;;;;;24.05;93.68;99794.94;5028681;28;20069;-72
2022/06/10 09:59:57;;;;;;;17.70;15.70;;;;;;;23.98;92.96;99782.88;5029948;28;20081;-72
2022/06/10 10:02:54;;;;;;;16.50;14.73;;;;;;;24.21;91.90;99780.41;5029950;28;20061;-72
2022/06/10 10:05:24;;;;;;;17.15;15.35;;;;;;;24.44;92.08;99760.38;5031152;28;20282;-72
2022/06/10 10:07:57;;;;;;;17.48;14.07;;;;;;;24.78;89.55;99776.91;5030900;28;20061;-72
2022/06/10 10:10:31;;;;;;;15.98;13.13;;;;;;;25.16;88.42;99787.94;5032078;28;20025;-74
2022/06/10 10:13:16;;;;;;;19.00;13.07;;;;;;;25.26;87.03;99786.72;5032068;28;20087;-73
2022/06/10 10:16:01;;;;;;;20.45;13.20;;;;;;;25.21;88.10;99783.38;5032209;28;20032;-72
2022/06/10 10:18:33;;;;;;;16.35;12.63;;;;;;;25.48;87.60;99792.16;5031983;28;20412;-72
2022/06/10 10:21:12;;;;;;;14.52;11.10;;;;;;;25.76;83.57;99774.44;5031906;28;20119;-70
2022/06/10 10:23:46;;;;;;;18.55;11.98;;;;;;;25.13;85.31;99748.44;5031773;28;20415;-71
2022/06/10 10:26:25;;;;;;;15.32;10.98;;;;;;;25.44;85.58;99784.38;5031844;28;20090;-70
2022/06/10 10:29:00;;;;;;;12.60;9.43;;;;;;;25.85;83.17;99774.06;5031767;28;20041;-70
2022/06/10 10:31:28;;;;;;;11.30;7.00;;;;;;;25.82;79.62;99764.47;5031775;28;20029;-71
2022/06/10 10:33:54;;;;;;;17.98;7.30;;;;;;;26.11;79.95;99772.25;5031671;28;20036;-74
2022/06/10 10:36:28;;;;;;;12.52;7.13;;;;;;;26.36;79.03;99766.84;5031608;28;20025;-72
2022/06/10 10:38:54;;;;;;;10.10;7.38;;;;;;;26.29;79.85;99778.59;5031689;28;20033;-76
2022/06/10 10:41:26;;;;;;;31.55;9.00;;;;;;;25.88;80.65;99781.88;5031333;28;20033;-73
2022/06/10 10:43:57;;;;;;;12.00;8.30;;;;;;;25.76;82.33;99774.44;5031482;28;20033;-72
2022/06/10 10:46:56;;;;;;;16.08;9.70;;;;;;;25.64;84.36;99784.50;5031316;28;20071;-70
2022/06/10 10:49:27;;;;;;;11.77;8.10;;;;;;;25.29;86.14;99756.69;5031901;28;20036;-73
2022/06/10 10:51:53;;;;;;;12.95;8.35;;;;;;;25.49;85.87;99761.31;5031387;28;20577;-73
2022/06/10 10:54:33;;;;;;;9.95;7.40;;;;;;;25.66;84.22;99756.25;5021443;28;20030;-72
2022/06/10 10:57:00;;;;;;;11.10;7.68;;;;;;;25.60;82.93;99722.13;5015242;28;20388;-72
2022/06/10 10:59:29;;;;;;;9.05;6.55;;;;;;;26.05;81.19;99752.16;5030932;28;20121;-73
2022/06/10 11:01:56;;;;;;;8.32;6.03;;;;;;;26.32;78.63;99752.03;5030354;28;20131;-72
2022/06/10 11:04:27;;;;;;;11.73;6.82;;;;;;;26.46;79.50;99752.31;5016411;28;20037;-72
2022/06/10 11:06:59;;;;;;;16.63;6.97;;;;;;;26.47;77.19;99746.13;5014226;28;20029;-73
2022/06/10 11:09:26;;;;;;;9.35;6.32;;;;;;;26.79;76.51;99733.38;5009433;28;20014;-73
2022/06/10 11:11:54;;;;;;;11.93;6.22;;;;;;;26.73;75.96;99730.06;5009652;28;20048;-72
2022/06/10 11:14:33;;;;;;;10.33;6.40;;;;;;;26.95;75.05;99728.28;5003106;28;20137;-73
2022/06/10 11:17:14;;;;;;;12.05;6.95;;;;;;;27.09;75.34;99729.44;5014403;28;20462;-73
2022/06/10 11:19:54;;;;;;;15.48;6.55;;;;;;;26.94;74.22;99718.63;5030524;28;20029;-74
2022/06/10 11:22:24;;;;;;;9.27;6.55;;;;;;;26.59;75.85;99731.53;5029959;28;20112;-72
2022/06/10 11:24:53;;;;;;;9.93;6.90;;;;;;;26.84;76.62;99727.84;5008306;28;20061;-72
2022/06/10 11:27:32;;;;;;;11.15;7.00;;;;;;;27.06;76.89;99732.25;5009791;28;20061;-72
2022/06/10 11:30:17;;;;;;;8.38;7.18;;;;;;;26.86;77.99;99730.47;5009435;28;20530;-71
2022/06/10 11:32:49;;;;;;;12.25;7.80;;;;;;;26.73;77.48;99701.81;5009684;28;20432;-70
2022/06/10 11:35:27;;;;;;;12.43;7.35;;;;;;;27.07;76.13;99718.94;5009034;28;20499;-71
2022/06/10 11:38:17;;;;;;;11.20;6.90;;;;;;;26.74;76.74;99697.41;5009038;28;20034;-71
2022/06/10 11:40:46;;;;;;;9.85;7.05;;;;;;;26.41;76.91;99719.91;5008191;28;20045;-72
2022/06/10 11:43:31;;;;;;;9.15;6.60;;;;;;;26.36;77.88;99715.72;5009142;28;20033;-72
2022/06/10 11:46:05;;;;;;;8.13;7.20;;;;;;;26.68;75.90;99717.03;5009057;28;20026;-71
2022/06/10 11:48:50;;;;;;;8.32;6.72;;;;;;;26.80;75.85;99710.38;5007638;28;20112;-72
2022/06/10 11:51:41;;;;;;;10.45;6.63;;;;;;;27.06;75.76;99717.19;5008534;28;20029;-72
2022/06/10 11:54:16;;;;;;;8.57;5.40;;;;;;;27.02;73.68;99688.28;5006351;28;20796;-71